Time;durP1;ratioP1;P1;durP2;ratioP2;P2;SDS_P1;SDS_P2;PMS_P1;PMS_P2;Temp;Humidity;BMP_temperature;BMP_pressure;BME280_temperature;BME280_humidity;BME280_pressure;Samples;Min_cycle;Max_cycle;Signal;HPM_P1;HPM_P2
2021/12/13 00:00:52;;;;;;;43.93;17.63;;;;;;;;;;4876405;29;20519;-77
2021/12/13 00:04:07;;;;;;;52.53;20.60;;;;;;;;;;4875218;29;20085;-77
2021/12/13 00:07:20;;;;;;;52.23;21.90;;;;;;;;;;4859238;29;20053;-77
2021/12/13 00:10:30;;;;;;;38.27;16.90;;;;;;;;;;4863421;29;20049;-77
2021/12/13 00:13:41;;;;;;;83.30;34.90;;;;;;;;;;4867920;29;20072;-77
2021/12/13 00:17:21;;;;;;;63.87;28.03;;;;;;;;;;4865167;29;20057;-77
2021/12/13 00:20:40;;;;;;;86.43;35.87;;;;;;;;;;4842382;29;20419;-76
2021/12/13 00:23:52;;;;;;;39.07;16.77;;;;;;;;;;4853563;29;20045;-77
2021/12/13 00:27:14;;;;;;;74.50;33.20;;;;;;;;;;4874981;29;20053;-77
2021/12/13 00:30:33;;;;;;;43.53;15.70;;;;;;;;;;4864040;29;20053;-77
2021/12/13 00:33:48;;;;;;;51.63;23.73;;;;;;;;;;4852394;29;20431;-77
2021/12/13 00:36:56;;;;;;;44.30;22.83;;;;;;;;;;4875111;29;20053;-76
2021/12/13 00:40:04;;;;;;;60.87;28.50;;;;;;;;;;4860843;29;20085;-77
2021/12/13 00:43:22;;;;;;;34.97;12.53;;;;;;;;;;4854920;29;20049;-76
2021/12/13 00:46:30;;;;;;;44.07;17.33;;;;;;;;;;4867104;29;20053;-76
2021/12/13 00:49:38;;;;;;;68.40;29.87;;;;;;;;;;4863464;29;20048;-76
2021/12/13 00:52:48;;;;;;;64.33;29.10;;;;;;;;;;4866835;29;20052;-77
2021/12/13 00:55:54;;;;;;;48.43;23.07;;;;;;;;;;4863025;29;20664;-77
2021/12/13 00:58:59;;;;;;;62.63;28.60;;;;;;;;;;4869336;29;20049;-76
2021/12/13 01:02:30;;;;;;;29.30;9.37;;;;;;;;;;4852371;29;20057;-77
2021/12/13 01:05:57;;;;;;;33.87;14.33;;;;;;;;;;4859333;29;20525;-77
2021/12/13 01:09:21;;;;;;;31.03;12.03;;;;;;;;;;4881020;29;20048;-76
2021/12/13 01:12:27;;;;;;;45.83;21.60;;;;;;;;;;4852744;29;20045;-77
2021/12/13 01:15:39;;;;;;;62.53;27.90;;;;;;;;;;4869007;29;20053;-77
2021/12/13 01:19:13;;;;;;;51.00;23.23;;;;;;;;;;4879740;29;20415;-77
2021/12/13 01:22:38;;;;;;;23.33;9.20;;;;;;;;;;4859558;29;20061;-76
2021/12/13 01:26:03;;;;;;;19.27;7.63;;;;;;;;;;4876941;29;20056;-77
2021/12/13 01:29:11;;;;;;;42.90;22.30;;;;;;;;;;4876551;29;20080;-76
2021/12/13 01:32:18;;;;;;;17.60;8.73;;;;;;;;;;4855554;29;20042;-77
2021/12/13 01:35:26;;;;;;;16.00;8.20;;;;;;;;;;4860574;29;20069;-77
2021/12/13 01:38:37;;;;;;;16.70;9.07;;;;;;;;;;4853505;29;20049;-77
2021/12/13 01:41:45;;;;;;;28.13;15.23;;;;;;;;;;4866081;29;20060;-76
2021/12/13 01:44:55;;;;;;;28.70;14.67;;;;;;;;;;4862567;29;20063;-78
2021/12/13 01:48:02;;;;;;;35.10;17.87;;;;;;;;;;4878311;29;20533;-77
2021/12/13 01:51:11;;;;;;;33.10;14.67;;;;;;;;;;4862946;29;20460;-78
2021/12/13 01:54:21;;;;;;;37.78;13.77;;;;;;;;;;4863586;29;20057;-78
2021/12/13 02:01:09;;;;;;;26.30;13.93;;;;;;;;;;4864013;29;20130;-76
2021/12/13 02:04:15;;;;;;;31.73;13.93;;;;;;;;;;4881398;29;20053;-76
2021/12/13 02:07:24;;;;;;;18.87;8.93;;;;;;;;;;4862885;29;20048;-77
2021/12/13 02:10:36;;;;;;;38.70;18.67;;;;;;;;;;4858730;29;20049;-76
2021/12/13 02:14:03;;;;;;;27.73;13.57;;;;;;;;;;4861831;29;20154;-77
2021/12/13 02:17:14;;;;;;;35.47;18.33;;;;;;;;;;4852690;29;20072;-76
2021/12/13 02:20:24;;;;;;;27.00;14.07;;;;;;;;;;4850901;29;20424;-77
2021/12/13 02:23:37;;;;;;;27.03;10.77;;;;;;;;;;4877369;29;20048;-76
2021/12/13 02:26:46;;;;;;;38.87;19.70;;;;;;;;;;4872639;29;20534;-77
2021/12/13 02:29:54;;;;;;;30.83;13.93;;;;;;;;;;4867030;29;20045;-77
2021/12/13 02:33:01;;;;;;;22.77;11.80;;;;;;;;;;4868495;29;20064;-76
2021/12/13 02:36:09;;;;;;;24.37;12.30;;;;;;;;;;4857978;29;20052;-77
2021/12/13 02:39:17;;;;;;;13.60;5.60;;;;;;;;;;4862184;29;20076;-78
2021/12/13 02:42:26;;;;;;;50.07;22.23;;;;;;;;;;4869590;29;20079;-77
2021/12/13 02:45:42;;;;;;;32.63;13.07;;;;;;;;;;4859335;29;20518;-77
2021/12/13 02:48:51;;;;;;;38.53;20.40;;;;;;;;;;4875884;29;20055;-76
2021/12/13 02:51:59;;;;;;;35.37;18.70;;;;;;;;;;4880337;29;20045;-77
2021/12/13 02:55:08;;;;;;;25.87;12.23;;;;;;;;;;4855945;29;20052;-77
2021/12/13 02:58:16;;;;;;;45.53;20.37;;;;;;;;;;4872617;29;20057;-77
2021/12/13 03:01:29;;;;;;;31.77;14.60;;;;;;;;;;4842636;29;20060;-77
2021/12/13 03:04:34;;;;;;;43.07;20.30;;;;;;;;;;4868684;29;20057;-77
2021/12/13 03:07:43;;;;;;;42.63;19.87;;;;;;;;;;4860005;29;20053;-78
2021/12/13 03:10:50;;;;;;;33.13;12.10;;;;;;;;;;4875761;29;20048;-77
2021/12/13 03:14:14;;;;;;;46.07;22.87;;;;;;;;;;4875045;29;20053;-76
2021/12/13 03:17:21;;;;;;;28.33;12.43;;;;;;;;;;4879766;29;20053;-77
2021/12/13 03:20:53;;;;;;;25.67;10.83;;;;;;;;;;4878258;29;20056;-77
2021/12/13 03:24:05;;;;;;;39.50;19.70;;;;;;;;;;4886668;29;20048;-76
2021/12/13 03:27:30;;;;;;;46.13;21.50;;;;;;;;;;4879952;29;20049;-77
2021/12/13 03:30:46;;;;;;;26.67;13.37;;;;;;;;;;4875368;29;20045;-76
2021/12/13 03:34:02;;;;;;;49.40;20.53;;;;;;;;;;4883443;29;20053;-78
2021/12/13 03:37:12;;;;;;;43.03;20.97;;;;;;;;;;4886320;29;20060;-77
2021/12/13 03:40:20;;;;;;;53.27;23.23;;;;;;;;;;4875953;29;20048;-79
2021/12/13 03:43:33;;;;;;;36.03;15.63;;;;;;;;;;4884255;29;20052;-78
2021/12/13 03:46:40;;;;;;;45.78;20.15;;;;;;;;;;4894109;29;20041;-77
2021/12/13 03:49:49;;;;;;;43.33;19.87;;;;;;;;;;4878104;29;20513;-76
2021/12/13 03:52:56;;;;;;;53.60;23.27;;;;;;;;;;4878807;29;20138;-76
2021/12/13 03:56:09;;;;;;;35.07;12.70;;;;;;;;;;4888232;29;20048;-78
2021/12/13 03:59:22;;;;;;;36.27;15.60;;;;;;;;;;4879461;29;20055;-75
2021/12/13 04:02:34;;;;;;;33.37;13.60;;;;;;;;;;4884913;29;20094;-77
2021/12/13 04:05:40;;;;;;;52.20;22.97;;;;;;;;;;4892324;29;20503;-76
2021/12/13 04:08:48;;;;;;;42.07;18.57;;;;;;;;;;4885306;29;20056;-77
2021/12/13 04:11:55;;;;;;;32.07;13.60;;;;;;;;;;4887552;29;20048;-77
2021/12/13 04:15:12;;;;;;;33.40;12.37;;;;;;;;;;4888371;29;20060;-78
2021/12/13 04:18:29;;;;;;;31.23;11.70;;;;;;;;;;4870307;29;20056;-78
2021/12/13 04:21:56;;;;;;;38.27;16.90;;;;;;;;;;4859139;29;20432;-78
2021/12/13 04:25:14;;;;;;;44.43;17.63;;;;;;;;;;4867411;29;20498;-76
2021/12/13 04:28:25;;;;;;;30.67;12.70;;;;;;;;;;4893856;29;20048;-77
2021/12/13 04:31:32;;;;;;;46.57;19.90;;;;;;;;;;4881785;29;20422;-77
2021/12/13 04:34:41;;;;;;;25.03;9.43;;;;;;;;;;4872225;29;20063;-76
2021/12/13 04:37:48;;;;;;;53.80;22.93;;;;;;;;;;4883164;29;20392;-76
2021/12/13 04:40:54;;;;;;;58.13;28.23;;;;;;;;;;4882615;29;20073;-76
2021/12/13 04:44:11;;;;;;;37.37;16.07;;;;;;;;;;4882769;29;20044;-78
2021/12/13 04:47:24;;;;;;;48.77;20.53;;;;;;;;;;4881819;29;20040;-77
2021/12/13 04:50:33;;;;;;;62.13;25.27;;;;;;;;;;4884832;29;20514;-76
2021/12/13 04:53:40;;;;;;;65.67;26.07;;;;;;;;;;4890576;29;20490;-76
2021/12/13 04:56:47;;;;;;;32.97;13.07;;;;;;;;;;4884737;29;20060;-76
2021/12/13 04:59:55;;;;;;;24.00;10.40;;;;;;;;;;4918842;29;20525;-76
2021/12/13 05:03:03;;;;;;;58.97;23.77;;;;;;;;;;4890877;29;20056;-76
2021/12/13 05:06:23;;;;;;;62.40;23.77;;;;;;;;;;4892608;29;20039;-79
2021/12/13 05:09:34;;;;;;;70.90;26.90;;;;;;;;;;4894450;29;20431;-78
2021/12/13 05:12:58;;;;;;;46.60;19.40;;;;;;;;;;4881322;29;20040;-78
2021/12/13 05:16:09;;;;;;;;;;;;;;;;;;4881790;29;20067;-77
2021/12/13 05:19:17;;;;;;;58.20;24.87;;;;;;;;;;4873220;29;19916;-78
2021/12/13 05:22:24;;;;;;;46.30;17.83;;;;;;;;;;4880841;29;20057;-76
2021/12/13 05:25:36;;;;;;;52.03;20.13;;;;;;;;;;4879867;29;20036;-78
2021/12/13 05:29:08;;;;;;;62.53;23.40;;;;;;;;;;4886915;29;20048;-79
2021/12/13 05:32:25;;;;;;;61.23;26.20;;;;;;;;;;4881806;29;20052;-80
2021/12/13 05:35:41;;;;;;;57.00;24.07;;;;;;;;;;4885984;29;20057;-81
2021/12/13 05:39:26;;;;;;;63.10;26.27;;;;;;;;;;4893478;29;20415;-78
2021/12/13 05:42:38;;;;;;;74.60;29.53;;;;;;;;;;4884614;29;20057;-78
2021/12/13 05:45:55;;;;;;;66.60;26.57;;;;;;;;;;4905006;29;20056;-79
2021/12/13 05:49:09;;;;;;;59.90;27.70;;;;;;;;;;4908532;29;20044;-78
2021/12/13 05:52:24;;;;;;;66.50;29.50;;;;;;;;;;4882823;29;20064;-77
2021/12/13 05:55:30;;;;;;;37.80;13.83;;;;;;;;;;4891660;29;20048;-77
2021/12/13 05:58:53;;;;;;;63.37;29.93;;;;;;;;;;4899129;29;20059;-77
2021/12/13 06:02:14;;;;;;;61.33;25.83;;;;;;;;;;4918994;29;20063;-78
2021/12/13 06:05:33;;;;;;;54.80;23.83;;;;;;;;;;4909648;29;20059;-78
2021/12/13 06:09:10;;;;;;;63.00;27.47;;;;;;;;;;4916222;28;20059;-80
2021/12/13 06:13:16;;;;;;;38.17;17.60;;;;;;;;;;4929271;29;20048;-81
2021/12/13 06:16:39;;;;;;;52.67;20.37;;;;;;;;;;4885446;29;20063;-80
2021/12/13 06:25:05;;;;;;;61.27;25.60;;;;;;;;;;4905831;29;20056;-80
2021/12/13 06:28:52;;;;;;;67.00;28.63;;;;;;;;;;4904441;29;20048;-80
2021/12/13 06:33:09;;;;;;;68.97;28.17;;;;;;;;;;4897794;29;20071;-80
2021/12/13 06:36:37;;;;;;;31.70;13.03;;;;;;;;;;4899074;29;20067;-80
2021/12/13 06:39:58;;;;;;;21.80;8.97;;;;;;;;;;4896949;29;20160;-79
2021/12/13 06:48:04;;;;;;;58.23;25.13;;;;;;;;;;4893683;29;20059;-80
2021/12/13 07:09:27;;;;;;;56.80;24.40;;;;;;;;;;4913166;29;20055;-81
2021/12/13 07:13:02;;;;;;;64.37;24.83;;;;;;;;;;4889024;29;20048;-79
2021/12/13 07:20:50;;;;;;;48.90;20.87;;;;;;;;;;4905699;29;19915;-80
2021/12/13 07:24:17;;;;;;;78.90;32.83;;;;;;;;;;4882556;29;20427;-79
2021/12/13 07:27:36;;;;;;;51.57;19.87;;;;;;;;;;4890093;29;20056;-80
2021/12/13 07:31:13;;;;;;;69.77;29.13;;;;;;;;;;4901753;29;20047;-79
2021/12/13 07:34:20;;;;;;;73.13;30.90;;;;;;;;;;4903162;29;20052;-77
2021/12/13 07:37:35;;;;;;;65.23;28.53;;;;;;;;;;4888508;29;20056;-77
2021/12/13 07:40:42;;;;;;;70.23;27.67;;;;;;;;;;4887689;29;20048;-77
2021/12/13 07:43:48;;;;;;;84.90;31.83;;;;;;;;;;4887193;29;20064;-76
2021/12/13 07:47:08;;;;;;;76.97;31.73;;;;;;;;;;4886547;29;20056;-78
2021/12/13 07:50:21;;;;;;;29.87;12.13;;;;;;;;;;4868589;29;20438;-79
2021/12/13 07:53:39;;;;;;;65.07;25.08;;;;;;;;;;4879261;29;20044;-80
2021/12/13 07:56:45;;;;;;;36.03;12.67;;;;;;;;;;4866389;29;20056;-78
2021/12/13 07:59:53;;;;;;;42.70;16.50;;;;;;;;;;4881370;29;20426;-79
2021/12/13 08:03:04;;;;;;;49.17;17.87;;;;;;;;;;4881716;29;20061;-78
2021/12/13 08:06:10;;;;;;;73.60;31.23;;;;;;;;;;4889692;29;20049;-78
2021/12/13 08:09:20;;;;;;;77.30;31.77;;;;;;;;;;4882412;29;20052;-78
2021/12/13 08:12:53;;;;;;;65.07;28.50;;;;;;;;;;4872334;29;20569;-78
2021/12/13 08:16:06;;;;;;;81.37;31.47;;;;;;;;;;4882362;29;20060;-79
2021/12/13 08:19:20;;;;;;;76.73;28.87;;;;;;;;;;4886761;29;20447;-77
2021/12/13 08:22:29;;;;;;;107.10;41.10;;;;;;;;;;4886774;29;20060;-78
2021/12/13 08:25:38;;;;;;;60.87;25.50;;;;;;;;;;4886231;29;20528;-77
2021/12/13 08:28:48;;;;;;;75.97;28.20;;;;;;;;;;4886058;29;20055;-78
2021/12/13 08:32:01;;;;;;;82.13;31.43;;;;;;;;;;4886342;29;20048;-77
2021/12/13 08:35:07;;;;;;;101.73;38.77;;;;;;;;;;4883132;29;20048;-79
2021/12/13 08:42:59;;;;;;;41.67;14.93;;;;;;;;;;4901090;29;20067;-77
2021/12/13 08:46:05;;;;;;;83.23;34.33;;;;;;;;;;4871960;29;20052;-79
2021/12/13 08:49:21;;;;;;;88.50;34.43;;;;;;;;;;4887367;29;20056;-78
2021/12/13 08:52:38;;;;;;;31.33;10.83;;;;;;;;;;4876884;29;20048;-78
2021/12/13 08:55:51;;;;;;;90.93;38.97;;;;;;;;;;4887031;29;20450;-78
2021/12/13 08:59:03;;;;;;;92.63;37.67;;;;;;;;;;4896115;29;20063;-77
2021/12/13 09:02:11;;;;;;;73.40;32.67;;;;;;;;;;4885120;29;20130;-76
2021/12/13 09:05:20;;;;;;;82.37;34.73;;;;;;;;;;4906697;29;20048;-76
2021/12/13 09:08:35;;;;;;;65.17;27.00;;;;;;;;;;4906145;29;20055;-77
2021/12/13 09:11:56;;;;;;;56.60;22.33;;;;;;;;;;4892494;29;20048;-77
2021/12/13 09:15:07;;;;;;;100.23;42.83;;;;;;;;;;4890038;29;20052;-78
2021/12/13 09:18:17;;;;;;;92.27;38.07;;;;;;;;;;4891044;29;20056;-78
2021/12/13 09:21:24;;;;;;;98.27;41.00;;;;;;;;;;4889368;29;20055;-77
2021/12/13 09:24:34;;;;;;;97.90;42.23;;;;;;;;;;4919501;29;20055;-78
2021/12/13 09:27:41;;;;;;;93.53;41.37;;;;;;;;;;4918724;29;20056;-77
2021/12/13 09:31:18;;;;;;;58.63;24.77;;;;;;;;;;4908896;29;20059;-82
2021/12/13 09:34:45;;;;;;;81.73;35.03;;;;;;;;;;4882071;29;20065;-81
2021/12/13 09:37:53;;;;;;;97.53;40.03;;;;;;;;;;4861760;29;20060;-77
2021/12/13 09:41:09;;;;;;;73.13;32.57;;;;;;;;;;4883198;29;20052;-77
2021/12/13 09:44:18;;;;;;;100.83;44.33;;;;;;;;;;4862412;29;20399;-77
2021/12/13 09:47:32;;;;;;;86.33;36.57;;;;;;;;;;4872384;29;20049;-77
2021/12/13 09:50:37;;;;;;;93.53;43.20;;;;;;;;;;4873000;29;20045;-77
2021/12/13 09:53:47;;;;;;;86.83;38.73;;;;;;;;;;4874798;29;20051;-77
2021/12/13 09:56:55;;;;;;;98.77;44.50;;;;;;;;;;4881617;29;20423;-78
2021/12/13 10:00:09;;;;;;;88.77;42.43;;;;;;;;;;4890951;29;20059;-78
2021/12/13 10:03:20;;;;;;;85.67;43.10;;;;;;;;;;4890311;29;20060;-76
2021/12/13 10:06:32;;;;;;;85.32;35.55;;;;;;;;;;4890166;29;20051;-77
2021/12/13 10:09:41;;;;;;;80.10;35.13;;;;;;;;;;4881574;29;20052;-77
2021/12/13 10:12:52;;;;;;;76.77;39.50;;;;;;;;;;4903060;29;20051;-78
2021/12/13 10:19:40;;;;;;;67.30;30.07;;;;;;;;;;4893388;29;20059;-78
2021/12/13 10:22:53;;;;;;;82.07;39.70;;;;;;;;;;4887292;29;20060;-78
2021/12/13 10:26:10;;;;;;;51.67;22.83;;;;;;;;;;4888067;29;20040;-78
2021/12/13 10:29:19;;;;;;;81.17;38.67;;;;;;;;;;4908331;29;20055;-76
2021/12/13 10:32:30;;;;;;;59.27;28.63;;;;;;;;;;4907196;29;20052;-75
2021/12/13 10:35:39;;;;;;;83.77;39.73;;;;;;;;;;4897179;29;20049;-76
2021/12/13 10:38:57;;;;;;;78.13;35.53;;;;;;;;;;4895101;29;20509;-76
2021/12/13 10:42:07;;;;;;;70.83;31.07;;;;;;;;;;4890275;29;20056;-76
2021/12/13 10:45:16;;;;;;;45.23;20.90;;;;;;;;;;4878439;29;20056;-76
2021/12/13 10:48:27;;;;;;;68.57;34.63;;;;;;;;;;4888290;29;20048;-76
2021/12/13 10:51:37;;;;;;;61.43;28.83;;;;;;;;;;4899236;29;20052;-76
2021/12/13 10:54:46;;;;;;;72.40;33.17;;;;;;;;;;4889106;29;20506;-75
2021/12/13 10:57:55;;;;;;;76.23;38.87;;;;;;;;;;4888648;29;20521;-77
2021/12/13 11:01:17;;;;;;;84.27;39.30;;;;;;;;;;4889035;29;20549;-77
2021/12/13 11:04:34;;;;;;;90.40;42.10;;;;;;;;;;4878744;29;20056;-76
2021/12/13 11:07:40;;;;;;;87.70;42.03;;;;;;;;;;4888941;29;20505;-76
2021/12/13 11:10:50;;;;;;;74.47;34.93;;;;;;;;;;4888187;29;20422;-75
2021/12/13 11:13:57;;;;;;;83.50;40.97;;;;;;;;;;4888152;29;20048;-76
2021/12/13 11:17:07;;;;;;;82.43;40.13;;;;;;;;;;4876364;29;20072;-76
2021/12/13 11:20:17;;;;;;;77.67;40.50;;;;;;;;;;4880713;29;20538;-76
2021/12/13 11:23:23;;;;;;;70.37;35.13;;;;;;;;;;4869517;29;20057;-76
2021/12/13 11:26:31;;;;;;;83.83;40.20;;;;;;;;;;4868702;29;20056;-76
2021/12/13 11:29:41;;;;;;;72.67;39.30;;;;;;;;;;4869517;29;20064;-75
2021/12/13 11:32:57;;;;;;;81.57;39.70;;;;;;;;;;4869336;29;20522;-76
2021/12/13 11:36:07;;;;;;;76.83;40.67;;;;;;;;;;4879918;29;20060;-76
2021/12/13 11:39:21;;;;;;;70.60;36.23;;;;;;;;;;4870035;29;20052;-77
2021/12/13 11:42:44;;;;;;;59.50;32.13;;;;;;;;;;4870795;29;20408;-76
2021/12/13 11:46:02;;;;;;;69.40;36.77;;;;;;;;;;4874462;29;20072;-79
2021/12/13 11:49:48;;;;;;;71.90;35.70;;;;;;;;;;4874605;29;20049;-78
2021/12/13 11:53:20;;;;;;;68.93;35.23;;;;;;;;;;4849319;29;20056;-77
2021/12/13 11:57:03;;;;;;;69.25;36.55;;;;;;;;;;4856975;29;20370;-77
2021/12/13 12:00:33;;;;;;;68.17;35.70;;;;;;;;;;4858829;29;20555;-77
2021/12/13 12:03:47;;;;;;;59.70;35.57;;;;;;;;;;4888097;29;20056;-76
2021/12/13 12:07:21;;;;;;;69.63;37.63;;;;;;;;;;4869785;29;20400;-76
2021/12/13 12:10:47;;;;;;;64.23;37.10;;;;;;;;;;4859627;29;20060;-77
2021/12/13 12:14:10;;;;;;;61.57;33.63;;;;;;;;;;4869544;29;20049;-77
2021/12/13 12:17:18;;;;;;;56.00;30.87;;;;;;;;;;4879420;29;20068;-77
2021/12/13 12:20:28;;;;;;;55.43;31.23;;;;;;;;;;4859618;29;20048;-77
2021/12/13 12:23:42;;;;;;;60.08;33.00;;;;;;;;;;4868427;29;20057;-77
2021/12/13 12:26:52;;;;;;;58.63;33.27;;;;;;;;;;4868284;29;20411;-78
2021/12/13 12:30:13;;;;;;;46.63;28.00;;;;;;;;;;4868777;29;20045;-77
2021/12/13 12:33:29;;;;;;;57.07;27.83;;;;;;;;;;4858995;29;20483;-77
2021/12/13 12:36:47;;;;;;;56.33;29.33;;;;;;;;;;4868444;29;20076;-77
2021/12/13 12:40:21;;;;;;;52.77;29.97;;;;;;;;;;4868030;29;20049;-78
2021/12/13 12:43:35;;;;;;;56.80;32.27;;;;;;;;;;4868647;29;20064;-77
2021/12/13 12:46:46;;;;;;;56.93;32.77;;;;;;;;;;4863823;29;20055;-78
2021/12/13 12:50:10;;;;;;;57.13;32.87;;;;;;;;;;4863175;29;20049;-77
2021/12/13 12:58:11;;;;;;;35.33;21.10;;;;;;;;;;4941929;29;20044;-81
2021/12/13 13:02:04;;;;;;;58.40;33.53;;;;;;;;;;4943061;28;20052;-81
2021/12/13 13:05:57;;;;;;;58.30;33.07;;;;;;;;;;4941421;29;20059;-82
2021/12/13 13:09:33;;;;;;;48.58;27.80;;;;;;;;;;4927959;29;20052;-81
2021/12/13 13:13:37;;;;;;;53.87;32.80;;;;;;;;;;4928717;29;20044;-81
2021/12/13 13:16:51;;;;;;;60.33;36.53;;;;;;;;;;4869918;29;20074;-82
2021/12/13 13:24:41;;;;;;;67.60;38.47;;;;;;;;;;4824663;29;20058;-82
2021/12/13 13:28:32;;;;;;;53.07;26.70;;;;;;;;;;4843879;29;20054;-81
2021/12/13 13:36:53;;;;;;;56.63;31.30;;;;;;;;;;4812776;29;20039;-82
2021/12/13 13:40:05;;;;;;;;;;;;;;;;;;4837288;29;20056;-83
2021/12/13 13:44:08;;;;;;;63.17;33.95;;;;;;;;;;4952129;23;19906;-83
2021/12/13 13:52:31;;;;;;;68.27;37.97;;;;;;;;;;4940697;29;20023;-82
2021/12/13 13:56:10;;;;;;;57.60;29.93;;;;;;;;;;4950603;28;20529;-82
2021/12/13 13:59:57;;;;;;;70.57;38.57;;;;;;;;;;4949551;28;20051;-83
2021/12/13 14:04:31;;;;;;;62.63;37.80;;;;;;;;;;4941529;28;20040;-84
2021/12/13 14:26:44;;;;;;;63.93;40.83;;;;;;;;;;5331482;23;20059;-80
2021/12/13 14:30:09;;;;;;;70.93;42.30;;;;;;;;;;4956069;29;20558;-82
2021/12/13 14:33:39;;;;;;;61.20;38.57;;;;;;;;;;4956584;29;20398;-84
2021/12/13 14:37:16;;;;;;;71.77;42.63;;;;;;;;;;4956568;28;20039;-82
2021/12/13 14:40:50;;;;;;;75.93;41.40;;;;;;;;;;4966128;29;20051;-81
2021/12/13 14:44:06;;;;;;;68.33;40.93;;;;;;;;;;4935279;29;20817;-78
2021/12/13 14:47:40;;;;;;;67.53;41.27;;;;;;;;;;4966063;29;20456;-82
2021/12/13 14:51:15;;;;;;;74.47;42.65;;;;;;;;;;4942864;29;20046;-80
2021/12/13 14:54:42;;;;;;;62.30;35.10;;;;;;;;;;4892547;29;20053;-77
2021/12/13 14:58:14;;;;;;;72.40;42.20;;;;;;;;;;4937512;29;20055;-79
2021/12/13 15:01:36;;;;;;;72.60;38.97;;;;;;;;;;4935929;29;20062;-78
2021/12/13 15:04:46;;;;;;;65.20;37.77;;;;;;;;;;4905663;29;20055;-78
2021/12/13 15:11:53;;;;;;;67.57;37.30;;;;;;;;;;4925282;29;20047;-78
2021/12/13 15:15:13;;;;;;;68.67;35.90;;;;;;;;;;4897269;29;20063;-78
2021/12/13 15:18:37;;;;;;;59.73;34.77;;;;;;;;;;4907081;29;20052;-78
2021/12/13 15:21:56;;;;;;;69.97;39.00;;;;;;;;;;4896265;29;20063;-79
2021/12/13 15:25:04;;;;;;;63.33;38.17;;;;;;;;;;4906599;29;20056;-78
2021/12/13 15:28:46;;;;;;;67.50;40.13;;;;;;;;;;4906943;29;20056;-79
2021/12/13 15:31:54;;;;;;;59.53;35.40;;;;;;;;;;4897712;29;20047;-77
2021/12/13 15:35:09;;;;;;;58.03;33.80;;;;;;;;;;4910524;29;20615;-78
2021/12/13 15:38:20;;;;;;;63.30;37.97;;;;;;;;;;4923239;29;20055;-78
2021/12/13 15:41:30;;;;;;;60.73;37.80;;;;;;;;;;4911156;29;20058;-80
2021/12/13 15:49:31;;;;;;;60.50;36.93;;;;;;;;;;4922327;29;20063;-78
2021/12/13 15:52:51;;;;;;;68.37;38.07;;;;;;;;;;4935201;29;20051;-79
2021/12/13 15:56:14;;;;;;;59.70;37.40;;;;;;;;;;4925813;29;20054;-79
2021/12/13 15:59:29;;;;;;;69.40;37.87;;;;;;;;;;4927614;29;20450;-79
2021/12/13 16:02:40;;;;;;;67.77;38.33;;;;;;;;;;4926140;29;20070;-79
2021/12/13 16:09:58;;;;;;;54.90;34.47;;;;;;;;;;4918785;29;20087;-79
2021/12/13 16:17:48;;;;;;;59.63;35.37;;;;;;;;;;4934083;29;20053;-81
2021/12/13 16:26:45;;;;;;;58.87;33.57;;;;;;;;;;4934128;29;20052;-80
2021/12/13 16:30:00;;;;;;;61.27;36.00;;;;;;;;;;4901834;29;20068;-79
2021/12/13 17:12:03;;;;;;;;;;;;;;;;;;4968683;29;20059;-83
2021/12/13 17:15:33;;;;;;;48.50;28.92;;;;;;;;;;4969913;28;19919;-83
2021/12/13 17:19:03;;;;;;;51.73;27.87;;;;;;;;;;4976532;28;20047;-83
2021/12/13 17:22:19;;;;;;;48.27;28.37;;;;;;;;;;4982567;28;20051;-82
2021/12/13 17:25:50;;;;;;;49.83;28.03;;;;;;;;;;4964946;28;20055;-81
2021/12/13 17:29:08;;;;;;;54.47;30.00;;;;;;;;;;4963270;29;20070;-79
2021/12/13 17:32:55;;;;;;;45.93;30.77;;;;;;;;;;4927243;29;20055;-80
2021/12/13 17:45:13;;;;;;;48.53;29.33;;;;;;;;;;4943945;29;20055;-78
2021/12/13 17:52:58;;;;;;;49.80;30.90;;;;;;;;;;4947965;29;20047;-78
2021/12/13 17:56:09;;;;;;;50.73;31.53;;;;;;;;;;4946350;29;20043;-76
2021/12/13 17:59:17;;;;;;;51.00;30.00;;;;;;;;;;4930473;29;20047;-77
2021/12/13 18:02:25;;;;;;;52.53;32.40;;;;;;;;;;4935100;29;20043;-77
2021/12/13 18:05:35;;;;;;;60.40;35.13;;;;;;;;;;4957571;29;20070;-80
2021/12/13 18:08:26;;;;;;;58.97;35.80;;;;;;;;;;4965647;23;20066;-80
2021/12/13 18:11:44;;;;;;;87.47;53.67;;;;;;;;;;4964000;28;20123;-78
2021/12/13 18:15:13;;;;;;;69.07;42.27;;;;;;;;;;4961519;28;20409;-77
2021/12/13 18:18:22;;;;;;;62.93;42.50;;;;;;;;;;4946010;28;20050;-77
2021/12/13 18:21:33;;;;;;;62.40;41.53;;;;;;;;;;4925968;29;20050;-77
2021/12/13 18:24:41;;;;;;;63.15;42.45;;;;;;;;;;4936396;28;20058;-77
2021/12/13 18:27:53;;;;;;;63.77;41.67;;;;;;;;;;4955469;28;20506;-77
2021/12/13 18:31:19;;;;;;;62.73;40.27;;;;;;;;;;4944415;29;20054;-77
2021/12/13 18:34:33;;;;;;;67.00;39.80;;;;;;;;;;4945008;29;20054;-77
2021/12/13 18:37:40;;;;;;;63.60;38.27;;;;;;;;;;4944420;29;20054;-77
2021/12/13 18:40:52;;;;;;;65.03;37.87;;;;;;;;;;4956947;28;20047;-77
2021/12/13 18:44:09;;;;;;;68.03;39.03;;;;;;;;;;4934908;29;20055;-79
2021/12/13 18:47:42;;;;;;;64.00;41.30;;;;;;;;;;4942136;29;20055;-81
2021/12/13 18:51:09;;;;;;;66.37;38.60;;;;;;;;;;4945802;29;20046;-77
2021/12/13 18:54:18;;;;;;;73.13;40.97;;;;;;;;;;4941209;28;20417;-79
2021/12/13 18:57:29;;;;;;;62.70;37.57;;;;;;;;;;4937947;29;20058;-79
2021/12/13 19:05:35;;;;;;;53.90;33.43;;;;;;;;;;4939180;29;20062;-78
2021/12/13 19:13:43;;;;;;;55.20;33.40;;;;;;;;;;4906411;29;20506;-79
2021/12/13 19:17:04;;;;;;;66.00;37.50;;;;;;;;;;4901703;29;20053;-77
2021/12/13 19:20:31;;;;;;;55.93;35.37;;;;;;;;;;4894763;29;20044;-79
2021/12/13 19:23:42;;;;;;;52.43;33.50;;;;;;;;;;4911181;29;20422;-78
2021/12/13 19:26:52;;;;;;;54.87;35.20;;;;;;;;;;4910681;29;20144;-78
2021/12/13 19:30:23;;;;;;;57.30;33.47;;;;;;;;;;4899830;29;20052;-77
2021/12/13 19:33:38;;;;;;;54.73;35.30;;;;;;;;;;4881569;29;20430;-77
2021/12/13 19:36:58;;;;;;;52.07;32.97;;;;;;;;;;4890248;29;20052;-77
2021/12/13 19:40:24;;;;;;;53.03;36.33;;;;;;;;;;4919815;29;20054;-79
2021/12/13 19:47:37;;;;;;;44.67;32.13;;;;;;;;;;4899008;29;20063;-77
2021/12/13 19:50:46;;;;;;;46.37;29.07;;;;;;;;;;4887582;29;20048;-78
2021/12/13 19:53:55;;;;;;;47.57;31.07;;;;;;;;;;4909309;29;20056;-78
2021/12/13 19:57:07;;;;;;;52.43;32.20;;;;;;;;;;4889861;29;20052;-77
2021/12/13 20:00:13;;;;;;;;;;;;;;;;;;4881130;29;20059;-78
2021/12/13 20:03:32;;;;;;;69.23;39.50;;;;;;;;;;4899178;29;19916;-78
2021/12/13 20:06:42;;;;;;;56.27;36.60;;;;;;;;;;4900860;29;20056;-77
2021/12/13 20:09:55;;;;;;;68.20;39.90;;;;;;;;;;4931974;29;20051;-79
2021/12/13 20:13:05;;;;;;;55.47;36.27;;;;;;;;;;4923055;29;20055;-78
2021/12/13 20:16:15;;;;;;;53.20;35.40;;;;;;;;;;4929850;29;20054;-77
2021/12/13 20:19:24;;;;;;;56.50;37.07;;;;;;;;;;4926217;28;20059;-78
2021/12/13 20:22:38;;;;;;;58.43;36.43;;;;;;;;;;4911614;29;20063;-77
2021/12/13 20:25:49;;;;;;;48.80;32.93;;;;;;;;;;4938804;29;20051;-77
2021/12/13 20:29:12;;;;;;;59.50;34.83;;;;;;;;;;4933533;28;20063;-77
2021/12/13 20:32:18;;;;;;;58.57;37.27;;;;;;;;;;4944538;28;20047;-77
2021/12/13 20:35:32;;;;;;;55.30;36.97;;;;;;;;;;4929547;28;20051;-77
2021/12/13 20:38:44;;;;;;;50.67;34.00;;;;;;;;;;4924910;29;20072;-78
2021/12/13 20:41:53;;;;;;;53.00;35.03;;;;;;;;;;4916105;29;20494;-77
2021/12/13 20:45:06;;;;;;;54.20;34.67;;;;;;;;;;4917382;29;20052;-78
2021/12/13 20:48:14;;;;;;;48.58;32.95;;;;;;;;;;4927803;29;20522;-77
2021/12/13 20:51:24;;;;;;;50.83;32.83;;;;;;;;;;4927869;29;20067;-78
2021/12/13 20:54:40;;;;;;;47.43;33.37;;;;;;;;;;4963508;28;20513;-80
2021/12/13 20:58:14;;;;;;;48.57;33.20;;;;;;;;;;4934927;28;20036;-81
2021/12/13 21:01:37;;;;;;;47.20;31.80;;;;;;;;;;4925696;29;20047;-79
2021/12/13 21:04:50;;;;;;;51.97;31.70;;;;;;;;;;4923140;29;20066;-78
2021/12/13 21:08:03;;;;;;;53.03;33.00;;;;;;;;;;4915806;29;20067;-78
2021/12/13 21:11:16;;;;;;;52.87;35.40;;;;;;;;;;4943128;29;20467;-78
2021/12/13 21:14:24;;;;;;;53.33;34.30;;;;;;;;;;4936945;29;20063;-79
2021/12/13 21:17:33;;;;;;;49.83;32.37;;;;;;;;;;4935378;29;20050;-77
2021/12/13 21:20:48;;;;;;;50.67;31.50;;;;;;;;;;4929140;29;20059;-77
2021/12/13 21:24:05;;;;;;;52.50;33.70;;;;;;;;;;4939341;29;20509;-77
2021/12/13 21:27:13;;;;;;;50.70;34.07;;;;;;;;;;4909279;29;20056;-77
2021/12/13 21:30:25;;;;;;;54.67;39.77;;;;;;;;;;4916915;29;20051;-78
2021/12/13 21:33:46;;;;;;;62.93;44.67;;;;;;;;;;4938345;29;20055;-79
2021/12/13 21:40:31;;;;;;;40.13;31.03;;;;;;;;;;4936045;29;20047;-78
2021/12/13 21:43:47;;;;;;;33.07;26.37;;;;;;;;;;4929654;29;20052;-78
2021/12/13 21:47:22;;;;;;;36.70;27.67;;;;;;;;;;4940454;29;20051;-79
2021/12/13 21:50:35;;;;;;;35.30;27.27;;;;;;;;;;4929768;29;20051;-79
2021/12/13 21:53:53;;;;;;;40.33;28.70;;;;;;;;;;4930873;29;20070;-78
2021/12/13 21:57:06;;;;;;;50.40;32.50;;;;;;;;;;4929506;28;20425;-79
2021/12/13 22:00:39;;;;;;;39.57;27.80;;;;;;;;;;4934507;29;20063;-79